Terminal Aerodrome Forecast
Issued by NWS Jackson, MS

Home | Current Version | Previous Version | Text Only | Print | Product List | Glossary On
Versions: 1 2 3 4 5 6 7 8 9 10 11 12 13 14 15 16 17 18 19 20 21 22 23
654
FTUS44 KJAN 180614 RRA
TAFHBG
TAF
KHBG 180614Z 1806/1906 16004KT 5SM BR OVC004
     FM181000 00000KT 1/2SM FG VV002
     FM181700 15005KT P6SM FEW015 BKN070=

USA.gov is the U.S. government's official web portal to all federal, state and local government web resources and services.